Time;durP1;ratioP1;P1;durP2;ratioP2;P2;SDS_P1;SDS_P2;PMS_P1;PMS_P2;Temp;Humidity;BMP_temperature;BMP_pressure;BME280_temperature;BME280_humidity;BME280_pressure;Samples;Min_cycle;Max_cycle;Signal;HPM_P1;HPM_P2
2022/08/10 00:00:56;;;;;;;6.18;2.53;;;;;;;;;;5038099;28;20036;-87
2022/08/10 00:03:22;;;;;;;6.88;2.30;;;;;;;;;;5048343;28;20395;-88
2022/08/10 00:05:48;;;;;;;5.50;2.40;;;;;;;;;;5048514;28;20103;-87
2022/08/10 00:08:15;;;;;;;4.93;2.38;;;;;;;;;;5049712;28;20021;-88
2022/08/10 00:10:41;;;;;;;4.10;2.15;;;;;;;;;;5034375;28;20071;-87
2022/08/10 00:13:07;;;;;;;5.07;2.65;;;;;;;;;;5040838;28;20021;-88
2022/08/10 00:15:33;;;;;;;3.95;2.28;;;;;;;;;;5037223;28;20036;-88
2022/08/10 00:17:59;;;;;;;5.35;2.55;;;;;;;;;;5053898;28;20021;-88
2022/08/10 00:20:25;;;;;;;5.05;2.35;;;;;;;;;;5035915;28;20625;-88
2022/08/10 00:22:51;;;;;;;4.97;2.40;;;;;;;;;;5035541;28;20067;-88
2022/08/10 00:25:17;;;;;;;6.50;2.55;;;;;;;;;;5034121;28;20139;-89
2022/08/10 00:27:43;;;;;;;4.47;2.50;;;;;;;;;;5035896;28;20021;-88
2022/08/10 00:30:09;;;;;;;7.20;2.50;;;;;;;;;;5035557;28;20036;-89
2022/08/10 00:32:35;;;;;;;4.30;2.40;;;;;;;;;;5034924;28;20029;-88
2022/08/10 00:35:02;;;;;;;5.57;2.40;;;;;;;;;;5032524;28;20497;-88
2022/08/10 00:37:28;;;;;;;5.07;2.65;;;;;;;;;;5032795;28;20120;-88
2022/08/10 00:39:54;;;;;;;5.32;2.17;;;;;;;;;;5033337;28;20073;-89
2022/08/10 00:42:20;;;;;;;5.22;2.88;;;;;;;;;;5032002;28;20053;-89
2022/08/10 00:44:52;;;;;;;5.20;2.75;;;;;;;;;;5041363;28;20035;-88
2022/08/10 00:47:19;;;;;;;5.78;2.80;;;;;;;;;;5035988;28;20108;-88
2022/08/10 00:49:45;;;;;;;5.72;2.97;;;;;;;;;;5053785;28;20029;-88
2022/08/10 00:52:12;;;;;;;5.78;2.97;;;;;;;;;;5054084;28;20035;-88
2022/08/10 00:54:39;;;;;;;4.82;2.65;;;;;;;;;;5055110;28;20031;-88
2022/08/10 00:57:05;;;;;;;4.65;2.47;;;;;;;;;;5052189;28;20116;-88
2022/08/10 00:59:33;;;;;;;5.53;2.88;;;;;;;;;;5052362;28;20375;-88
2022/08/10 01:01:59;;;;;;;5.13;2.45;;;;;;;;;;5035689;28;20410;-88
2022/08/10 01:04:25;;;;;;;4.75;2.30;;;;;;;;;;5035295;28;20028;-88
2022/08/10 01:06:51;;;;;;;6.20;2.53;;;;;;;;;;5035774;28;20036;-89
2022/08/10 01:09:26;;;;;;;5.00;2.92;;;;;;;;;;5035682;28;20082;-88
2022/08/10 01:12:02;;;;;;;4.70;2.70;;;;;;;;;;5054768;28;20096;-89
2022/08/10 01:14:46;;;;;;;4.75;2.60;;;;;;;;;;5067915;28;20039;-88
2022/08/10 01:17:14;;;;;;;5.72;2.90;;;;;;;;;;5035058;28;20028;-88
2022/08/10 01:19:49;;;;;;;4.35;2.65;;;;;;;;;;5035296;28;20343;-88
2022/08/10 01:22:34;;;;;;;5.55;2.88;;;;;;;;;;5035592;28;20032;-88
2022/08/10 01:25:10;;;;;;;4.75;2.38;;;;;;;;;;5035806;28;20072;-89
2022/08/10 01:27:41;;;;;;;5.25;2.58;;;;;;;;;;5035234;28;20053;-88
2022/08/10 01:30:09;;;;;;;5.07;2.50;;;;;;;;;;5034798;28;20115;-88
2022/08/10 01:32:41;;;;;;;5.95;2.85;;;;;;;;;;5027970;28;20022;-88
2022/08/10 01:35:17;;;;;;;6.18;2.72;;;;;;;;;;5031805;28;20029;-88
2022/08/10 01:38:05;;;;;;;5.03;2.45;;;;;;;;;;5034489;28;20053;-88
2022/08/10 01:40:33;;;;;;;5.20;2.83;;;;;;;;;;5022447;28;20095;-88
2022/08/10 01:43:03;;;;;;;4.53;2.78;;;;;;;;;;5039239;28;20128;-88
2022/08/10 01:45:30;;;;;;;5.97;2.80;;;;;;;;;;5039190;28;20040;-88
2022/08/10 01:51:11;;;;;;;4.97;2.95;;;;;;;;;;5037345;28;20047;-88
2022/08/10 01:53:45;;;;;;;4.20;2.40;;;;;;;;;;5022470;28;20092;-88
2022/08/10 01:56:14;;;;;;;5.90;2.80;;;;;;;;;;5056857;28;20013;-88
2022/08/10 01:58:40;;;;;;;6.03;2.70;;;;;;;;;;5038286;28;20119;-89
2022/08/10 02:01:09;;;;;;;5.07;2.90;;;;;;;;;;5038336;28;20047;-89
2022/08/10 02:03:36;;;;;;;5.75;3.00;;;;;;;;;;5038041;28;20021;-89
2022/08/10 02:06:03;;;;;;;4.20;2.63;;;;;;;;;;5038404;28;20510;-89
2022/08/10 02:08:30;;;;;;;4.90;2.75;;;;;;;;;;5056316;28;20025;-88
2022/08/10 02:10:56;;;;;;;7.50;3.00;;;;;;;;;;5037972;28;20021;-88
2022/08/10 02:13:23;;;;;;;5.20;2.70;;;;;;;;;;5037840;28;20096;-88
2022/08/10 02:15:51;;;;;;;4.82;3.00;;;;;;;;;;5038220;28;20025;-88
2022/08/10 02:18:17;;;;;;;5.22;2.88;;;;;;;;;;5038230;28;20025;-88
2022/08/10 02:20:44;;;;;;;4.60;2.72;;;;;;;;;;5038388;28;20121;-88
2022/08/10 02:23:17;;;;;;;5.85;2.72;;;;;;;;;;5037879;28;20024;-88
2022/08/10 02:25:44;;;;;;;4.68;2.90;;;;;;;;;;5038324;28;20017;-88
2022/08/10 02:28:18;;;;;;;5.43;3.00;;;;;;;;;;5037784;28;20025;-88
2022/08/10 02:30:45;;;;;;;4.50;2.70;;;;;;;;;;5038122;28;20029;-89
2022/08/10 02:33:12;;;;;;;5.53;3.20;;;;;;;;;;5037783;28;20503;-88
2022/08/10 02:35:38;;;;;;;4.72;2.80;;;;;;;;;;5037614;28;20028;-88
2022/08/10 02:38:06;;;;;;;4.78;2.63;;;;;;;;;;5037316;28;20112;-88
2022/08/10 02:40:36;;;;;;;5.55;2.72;;;;;;;;;;5055544;28;20107;-88
2022/08/10 02:43:05;;;;;;;5.30;3.05;;;;;;;;;;5037817;28;20033;-88
2022/08/10 02:45:34;;;;;;;4.90;3.05;;;;;;;;;;5039593;28;20057;-88
2022/08/10 02:48:03;;;;;;;4.47;2.90;;;;;;;;;;5036839;28;20070;-88
2022/08/10 02:50:29;;;;;;;4.68;2.90;;;;;;;;;;5037392;28;20136;-89
2022/08/10 02:53:13;;;;;;;5.72;3.38;;;;;;;;;;5038003;28;20021;-88
2022/08/10 02:55:39;;;;;;;4.60;2.65;;;;;;;;;;5037421;28;20025;-88
2022/08/10 02:58:07;;;;;;;5.47;2.90;;;;;;;;;;5037809;28;20013;-88
2022/08/10 03:00:36;;;;;;;6.30;2.92;;;;;;;;;;5053837;28;20067;-89
2022/08/10 03:03:03;;;;;;;6.38;3.40;;;;;;;;;;5080733;28;20037;-91
2022/08/10 03:05:30;;;;;;;5.70;2.97;;;;;;;;;;5050890;28;20033;-89
2022/08/10 03:08:06;;;;;;;4.93;3.05;;;;;;;;;;5054757;28;20032;-88
2022/08/10 03:10:33;;;;;;;5.38;3.05;;;;;;;;;;5038044;28;20032;-89
2022/08/10 03:13:00;;;;;;;4.10;2.70;;;;;;;;;;5036756;28;20029;-88
2022/08/10 03:15:30;;;;;;;5.20;3.08;;;;;;;;;;5036817;28;20028;-89
2022/08/10 03:17:57;;;;;;;6.47;3.10;;;;;;;;;;5036798;28;20071;-88
2022/08/10 03:20:24;;;;;;;4.72;2.97;;;;;;;;;;5037058;28;20461;-88
2022/08/10 03:22:51;;;;;;;5.15;3.05;;;;;;;;;;5040177;28;20566;-88
2022/08/10 03:25:19;;;;;;;5.47;3.20;;;;;;;;;;5037707;28;20025;-88
2022/08/10 03:27:45;;;;;;;6.43;2.97;;;;;;;;;;5036948;28;20047;-89
2022/08/10 03:30:12;;;;;;;7.13;3.50;;;;;;;;;;5036694;28;20029;-88
2022/08/10 03:32:38;;;;;;;5.28;3.30;;;;;;;;;;5036592;28;20017;-89
2022/08/10 03:35:05;;;;;;;6.45;3.50;;;;;;;;;;5036399;28;20017;-89
2022/08/10 03:37:31;;;;;;;6.38;3.75;;;;;;;;;;5036743;28;20079;-88
2022/08/10 03:39:57;;;;;;;5.18;3.47;;;;;;;;;;5036785;28;20053;-88
2022/08/10 03:42:26;;;;;;;5.20;3.30;;;;;;;;;;5036827;28;20057;-88
2022/08/10 03:44:52;;;;;;;7.40;3.33;;;;;;;;;;5034054;28;20518;-88
2022/08/10 03:47:19;;;;;;;6.03;3.35;;;;;;;;;;5034124;28;20029;-88
2022/08/10 03:49:47;;;;;;;5.13;3.20;;;;;;;;;;5033037;28;20554;-88
2022/08/10 03:52:13;;;;;;;5.65;3.60;;;;;;;;;;5047634;28;20052;-88
2022/08/10 03:54:40;;;;;;;5.90;3.45;;;;;;;;;;5036244;28;20524;-88
2022/08/10 03:57:06;;;;;;;4.90;3.42;;;;;;;;;;5036189;28;20052;-88
2022/08/10 03:59:35;;;;;;;5.43;3.70;;;;;;;;;;5034652;28;20589;-89
2022/08/10 04:02:01;;;;;;;6.90;3.50;;;;;;;;;;5054274;28;20024;-89
2022/08/10 04:04:27;;;;;;;6.93;3.55;;;;;;;;;;5035987;28;20032;-89
2022/08/10 04:06:54;;;;;;;6.13;3.20;;;;;;;;;;5036431;28;20036;-87
2022/08/10 04:09:20;;;;;;;5.97;3.53;;;;;;;;;;5028211;28;20033;-88
2022/08/10 04:11:46;;;;;;;5.57;3.60;;;;;;;;;;5037767;28;20020;-88
2022/08/10 04:14:12;;;;;;;7.00;3.30;;;;;;;;;;5036435;28;20027;-88
2022/08/10 04:16:38;;;;;;;6.03;3.60;;;;;;;;;;5036916;28;20025;-88
2022/08/10 04:19:05;;;;;;;6.68;4.00;;;;;;;;;;5037069;28;20021;-88
2022/08/10 04:21:34;;;;;;;6.90;3.53;;;;;;;;;;5054184;28;20268;-88
2022/08/10 04:24:02;;;;;;;5.40;3.63;;;;;;;;;;5036401;28;20025;-88
2022/08/10 04:26:28;;;;;;;5.82;3.15;;;;;;;;;;5036702;28;20040;-88
2022/08/10 04:28:54;;;;;;;5.75;4.20;;;;;;;;;;5036356;28;20028;-89
2022/08/10 04:31:21;;;;;;;7.07;4.45;;;;;;;;;;5036033;28;20568;-88
2022/08/10 04:33:50;;;;;;;5.95;3.55;;;;;;;;;;5036741;28;20100;-87
2022/08/10 04:36:17;;;;;;;7.30;3.60;;;;;;;;;;5036808;28;20017;-89
2022/08/10 04:38:43;;;;;;;6.25;3.70;;;;;;;;;;5035737;28;20029;-89
2022/08/10 04:41:09;;;;;;;5.93;4.03;;;;;;;;;;5034433;28;20032;-89
2022/08/10 04:43:37;;;;;;;6.43;3.92;;;;;;;;;;5034349;28;20025;-89
2022/08/10 04:46:03;;;;;;;7.57;3.80;;;;;;;;;;5034615;28;20087;-89
2022/08/10 04:48:29;;;;;;;6.68;3.45;;;;;;;;;;5034713;28;20025;-89
2022/08/10 04:50:56;;;;;;;6.65;3.50;;;;;;;;;;5018845;28;20071;-90
2022/08/10 04:53:22;;;;;;;5.35;3.20;;;;;;;;;;5036141;28;20654;-89
2022/08/10 04:55:48;;;;;;;6.85;3.42;;;;;;;;;;5035234;28;20540;-89
2022/08/10 04:58:14;;;;;;;6.78;3.83;;;;;;;;;;5035691;28;20048;-89
2022/08/10 05:00:40;;;;;;;6.13;3.30;;;;;;;;;;5035238;28;20390;-89
2022/08/10 05:03:06;;;;;;;5.65;3.08;;;;;;;;;;5034945;28;20028;-89
2022/08/10 05:05:32;;;;;;;5.65;3.35;;;;;;;;;;5035289;28;20036;-88
2022/08/10 05:07:58;;;;;;;13.27;4.80;;;;;;;;;;5034305;28;20116;-89
2022/08/10 05:10:25;;;;;;;6.30;3.25;;;;;;;;;;5034671;28;20036;-89
2022/08/10 05:12:51;;;;;;;6.65;3.70;;;;;;;;;;5033671;28;20029;-89
2022/08/10 05:15:18;;;;;;;7.97;3.50;;;;;;;;;;5034472;28;20025;-89
2022/08/10 05:17:44;;;;;;;5.32;3.58;;;;;;;;;;5034019;28;20072;-89
2022/08/10 05:20:11;;;;;;;8.88;4.35;;;;;;;;;;5034853;28;20474;-89
2022/08/10 05:22:41;;;;;;;6.32;3.53;;;;;;;;;;5034824;28;20029;-89
2022/08/10 05:25:12;;;;;;;6.90;4.22;;;;;;;;;;5035102;28;20124;-89
2022/08/10 05:27:39;;;;;;;6.22;3.55;;;;;;;;;;5037611;28;20103;-90
2022/08/10 05:30:06;;;;;;;6.57;3.78;;;;;;;;;;5034573;28;20559;-89
2022/08/10 05:32:32;;;;;;;7.82;4.00;;;;;;;;;;5034956;28;20029;-90
2022/08/10 05:34:58;;;;;;;11.13;3.95;;;;;;;;;;5034101;28;20029;-89
2022/08/10 05:37:25;;;;;;;8.50;3.65;;;;;;;;;;5051338;28;20029;-90
2022/08/10 05:39:51;;;;;;;6.25;3.58;;;;;;;;;;5052248;28;20106;-89
2022/08/10 05:42:20;;;;;;;11.48;4.50;;;;;;;;;;5050759;28;20029;-89
2022/08/10 05:44:46;;;;;;;6.60;4.00;;;;;;;;;;5032946;28;20029;-90
2022/08/10 05:47:12;;;;;;;9.77;4.38;;;;;;;;;;5034502;28;20096;-90
2022/08/10 05:49:39;;;;;;;6.60;3.70;;;;;;;;;;5034602;28;20025;-90
2022/08/10 05:52:05;;;;;;;7.03;3.60;;;;;;;;;;5034554;28;20021;-90
2022/08/10 05:54:31;;;;;;;6.05;3.33;;;;;;;;;;5052486;28;20090;-89
2022/08/10 05:56:57;;;;;;;6.13;3.60;;;;;;;;;;5016362;28;20026;-90
2022/08/10 05:59:27;;;;;;;6.53;3.42;;;;;;;;;;5043991;28;20395;-90
2022/08/10 06:01:53;;;;;;;8.70;4.00;;;;;;;;;;5015060;28;20471;-90
2022/08/10 06:04:24;;;;;;;5.20;3.63;;;;;;;;;;5014881;28;20164;-89
2022/08/10 06:06:51;;;;;;;5.90;3.65;;;;;;;;;;5031065;28;20403;-90
2022/08/10 06:09:18;;;;;;;5.60;3.35;;;;;;;;;;5034362;28;20112;-90
2022/08/10 06:11:45;;;;;;;6.93;3.80;;;;;;;;;;5046317;28;20080;-91
2022/08/10 06:17:02;;;;;;;5.72;3.63;;;;;;;;;;5065084;28;20107;-89
2022/08/10 06:19:29;;;;;;;5.90;3.33;;;;;;;;;;5052496;28;20442;-89
2022/08/10 06:22:00;;;;;;;7.65;3.78;;;;;;;;;;5030639;28;20600;-90
2022/08/10 06:24:27;;;;;;;5.60;4.00;;;;;;;;;;5038303;28;20372;-89
2022/08/10 06:26:53;;;;;;;8.23;3.78;;;;;;;;;;5055688;28;20021;-89
2022/08/10 06:29:19;;;;;;;5.93;3.50;;;;;;;;;;5037629;28;20036;-89
2022/08/10 06:31:47;;;;;;;5.68;3.22;;;;;;;;;;5038090;28;20716;-91
2022/08/10 06:34:14;;;;;;;8.30;4.20;;;;;;;;;;5056091;28;20027;-90
2022/08/10 06:36:41;;;;;;;6.75;3.80;;;;;;;;;;5055797;28;20021;-89
2022/08/10 06:39:07;;;;;;;5.07;3.40;;;;;;;;;;5038550;28;20166;-88
2022/08/10 06:41:35;;;;;;;8.63;3.45;;;;;;;;;;5039064;28;20025;-91
2022/08/10 06:44:03;;;;;;;6.65;3.30;;;;;;;;;;5038422;28;20031;-90
2022/08/10 06:46:30;;;;;;;6.32;3.60;;;;;;;;;;5056439;28;20033;-89
2022/08/10 06:49:01;;;;;;;8.05;3.55;;;;;;;;;;5038067;28;20028;-89
2022/08/10 06:51:30;;;;;;;8.38;4.47;;;;;;;;;;5037146;28;20115;-90
2022/08/10 06:53:59;;;;;;;5.38;3.53;;;;;;;;;;5032189;28;20044;-89
2022/08/10 06:56:26;;;;;;;5.43;3.22;;;;;;;;;;5017603;28;20028;-90
2022/08/10 06:58:53;;;;;;;6.55;3.25;;;;;;;;;;5034549;28;20502;-89
2022/08/10 07:01:22;;;;;;;5.68;3.20;;;;;;;;;;5035449;28;20458;-89
2022/08/10 07:04:00;;;;;;;5.53;3.15;;;;;;;;;;5035680;28;20037;-91
2022/08/10 07:06:26;;;;;;;10.48;4.57;;;;;;;;;;5034691;28;20029;-89
2022/08/10 07:08:53;;;;;;;7.40;3.40;;;;;;;;;;5035474;28;20021;-89
2022/08/10 07:11:20;;;;;;;6.57;3.15;;;;;;;;;;5036131;28;20029;-90
2022/08/10 07:13:47;;;;;;;6.22;2.95;;;;;;;;;;5017308;28;20467;-89
2022/08/10 07:16:14;;;;;;;8.35;3.72;;;;;;;;;;5035483;28;20539;-89
2022/08/10 07:18:41;;;;;;;5.45;3.22;;;;;;;;;;5036031;28;20022;-89
2022/08/10 07:21:08;;;;;;;5.93;3.53;;;;;;;;;;5047824;28;20500;-89
2022/08/10 07:23:35;;;;;;;5.82;3.35;;;;;;;;;;5037561;28;20028;-89
2022/08/10 07:26:01;;;;;;;5.70;3.20;;;;;;;;;;5037019;28;20021;-89
2022/08/10 07:28:28;;;;;;;7.07;3.22;;;;;;;;;;5024719;28;20071;-89
2022/08/10 07:30:56;;;;;;;5.10;3.30;;;;;;;;;;5055934;28;20036;-90
2022/08/10 07:33:23;;;;;;;9.23;3.50;;;;;;;;;;5054867;28;20017;-88
2022/08/10 07:35:50;;;;;;;5.93;3.40;;;;;;;;;;5037598;28;20060;-89
2022/08/10 07:38:23;;;;;;;6.88;3.17;;;;;;;;;;5054543;28;20025;-88
2022/08/10 07:40:51;;;;;;;6.32;2.85;;;;;;;;;;5037150;28;20084;-89
2022/08/10 07:43:18;;;;;;;4.55;2.92;;;;;;;;;;5038384;28;20471;-89
2022/08/10 07:45:45;;;;;;;7.00;3.17;;;;;;;;;;5037242;28;20029;-89
2022/08/10 07:48:19;;;;;;;7.05;3.70;;;;;;;;;;5054287;28;20090;-89
2022/08/10 07:50:46;;;;;;;4.82;2.90;;;;;;;;;;5032765;28;20043;-89
2022/08/10 07:53:15;;;;;;;6.63;3.38;;;;;;;;;;5035585;28;20032;-89
2022/08/10 07:55:42;;;;;;;5.68;3.08;;;;;;;;;;5034825;28;20051;-88
2022/08/10 07:58:09;;;;;;;7.80;3.20;;;;;;;;;;5046443;28;20094;-89
2022/08/10 08:00:36;;;;;;;5.28;2.78;;;;;;;;;;5037530;28;20017;-89
2022/08/10 08:03:06;;;;;;;5.70;2.55;;;;;;;;;;5037007;28;20029;-88
2022/08/10 08:05:32;;;;;;;5.18;2.65;;;;;;;;;;5054946;28;20051;-89
2022/08/10 08:08:00;;;;;;;5.82;2.80;;;;;;;;;;5055021;28;20028;-89
2022/08/10 08:10:27;;;;;;;6.82;3.00;;;;;;;;;;5054576;28;20386;-88
2022/08/10 08:12:56;;;;;;;6.75;2.92;;;;;;;;;;5037873;28;20020;-87
2022/08/10 08:15:23;;;;;;;5.53;2.97;;;;;;;;;;5037901;28;20021;-89
2022/08/10 08:17:49;;;;;;;6.40;2.63;;;;;;;;;;5039234;28;20052;-89
2022/08/10 08:20:16;;;;;;;6.05;2.90;;;;;;;;;;5056385;28;20039;-89
2022/08/10 08:22:43;;;;;;;6.25;2.78;;;;;;;;;;5056367;28;20020;-88
2022/08/10 08:25:09;;;;;;;5.13;3.05;;;;;;;;;;5037738;28;20498;-89
2022/08/10 08:27:36;;;;;;;4.70;2.70;;;;;;;;;;5057659;28;20053;-91
2022/08/10 08:30:03;;;;;;;4.60;2.30;;;;;;;;;;5059021;28;20029;-90
2022/08/10 08:32:30;;;;;;;4.43;2.47;;;;;;;;;;5021137;28;20399;-89
2022/08/10 08:34:58;;;;;;;5.68;2.70;;;;;;;;;;5024116;28;20017;-90
2022/08/10 08:37:29;;;;;;;4.88;3.00;;;;;;;;;;5039709;28;20028;-87
2022/08/10 08:39:55;;;;;;;7.25;2.75;;;;;;;;;;5060074;28;20615;-88
2022/08/10 08:42:47;;;;;;;5.38;2.47;;;;;;;;;;5039960;28;20540;-88
2022/08/10 08:45:22;;;;;;;5.47;2.63;;;;;;;;;;5036487;28;20041;-88
2022/08/10 08:48:03;;;;;;;6.82;5.22;;;;;;;;;;5039440;28;20078;-88
2022/08/10 08:50:47;;;;;;;5.07;2.75;;;;;;;;;;5055934;28;20087;-90
2022/08/10 08:53:19;;;;;;;5.30;2.60;;;;;;;;;;5038904;28;20454;-88
2022/08/10 08:55:55;;;;;;;7.63;2.72;;;;;;;;;;5040495;28;20405;-86
2022/08/10 08:58:30;;;;;;;4.63;2.38;;;;;;;;;;5035418;28;20572;-89
2022/08/10 09:00:56;;;;;;;6.88;3.10;;;;;;;;;;5046878;28;20128;-87
2022/08/10 09:03:40;;;;;;;4.57;2.47;;;;;;;;;;5037653;28;20027;-88
2022/08/10 09:06:25;;;;;;;6.13;2.70;;;;;;;;;;5038007;28;20051;-89
2022/08/10 09:09:00;;;;;;;4.55;2.60;;;;;;;;;;5054473;28;20032;-89
2022/08/10 09:11:45;;;;;;;5.60;2.83;;;;;;;;;;5037747;28;20527;-89
2022/08/10 09:14:30;;;;;;;4.70;2.50;;;;;;;;;;5037117;28;20025;-88
2022/08/10 09:17:00;;;;;;;4.60;2.60;;;;;;;;;;5038881;28;20043;-86
2022/08/10 09:19:54;;;;;;;4.35;2.65;;;;;;;;;;5035945;28;20036;-89
2022/08/10 09:22:31;;;;;;;6.80;3.03;;;;;;;;;;5027229;28;20041;-89
2022/08/10 09:25:09;;;;;;;4.90;2.50;;;;;;;;;;5036025;28;20032;-87
2022/08/10 09:27:40;;;;;;;6.40;3.13;;;;;;;;;;5049762;28;20040;-88
2022/08/10 09:30:09;;;;;;;5.07;2.33;;;;;;;;;;5041103;28;20025;-90
2022/08/10 09:32:38;;;;;;;4.85;2.30;;;;;;;;;;5027353;28;20458;-88
2022/08/10 09:35:16;;;;;;;4.68;2.22;;;;;;;;;;5024159;28;20466;-89
2022/08/10 09:37:49;;;;;;;5.07;2.50;;;;;;;;;;5027671;28;20036;-88
2022/08/10 09:40:29;;;;;;;4.50;2.22;;;;;;;;;;5063823;28;20056;-87
2022/08/10 09:42:58;;;;;;;4.55;2.20;;;;;;;;;;5044794;28;20391;-88
2022/08/10 09:45:37;;;;;;;4.75;2.60;;;;;;;;;;5044260;28;20020;-87
2022/08/10 09:48:21;;;;;;;6.13;2.70;;;;;;;;;;5061582;28;20032;-88
2022/08/10 09:50:57;;;;;;;4.93;2.53;;;;;;;;;;5040416;28;20036;-88
2022/08/10 09:53:38;;;;;;;4.13;2.22;;;;;;;;;;5036713;28;20047;-87
2022/08/10 09:56:31;;;;;;;5.95;2.83;;;;;;;;;;5043986;28;20025;-88
2022/08/10 09:58:57;;;;;;;;;;;;;;;;;;5040934;28;20033;-89
2022/08/10 10:01:32;;;;;;;4.82;2.25;;;;;;;;;;5059891;28;19977;-88
2022/08/10 10:04:09;;;;;;;5.80;2.25;;;;;;;;;;5040702;28;20450;-89
2022/08/10 10:06:42;;;;;;;4.15;2.22;;;;;;;;;;5042026;28;20461;-87
2022/08/10 10:09:22;;;;;;;4.40;2.25;;;;;;;;;;5040644;28;20033;-87
2022/08/10 10:12:05;;;;;;;6.90;2.53;;;;;;;;;;5059320;28;20108;-88
2022/08/10 10:15:19;;;;;;;4.07;2.13;;;;;;;;;;5038588;28;20017;-88
2022/08/10 10:17:29;;;;;;;5.28;2.35;;;;;;;;;;5058274;28;20079;-88
2022/08/10 10:20:15;;;;;;;5.43;2.53;;;;;;;;;;5040594;28;20031;-88
2022/08/10 10:22:52;;;;;;;5.63;2.40;;;;;;;;;;5059416;28;20032;-87
2022/08/10 10:25:42;;;;;;;5.25;2.30;;;;;;;;;;5043371;28;20052;-86
2022/08/10 10:28:13;;;;;;;5.35;2.30;;;;;;;;;;5026538;28;20661;-89
2022/08/10 10:30:55;;;;;;;4.75;2.58;;;;;;;;;;5065245;28;20033;-88
2022/08/10 10:33:36;;;;;;;5.28;2.00;;;;;;;;;;5047061;28;20029;-87
2022/08/10 10:36:03;;;;;;;5.30;2.40;;;;;;;;;;5044933;28;20119;-90
2022/08/10 10:38:33;;;;;;;3.58;1.70;;;;;;;;;;5040665;28;20032;-87
2022/08/10 10:41:10;;;;;;;4.50;2.20;;;;;;;;;;5057998;28;20102;-89
2022/08/10 10:43:55;;;;;;;4.90;2.25;;;;;;;;;;5040496;28;20072;-88
2022/08/10 10:46:32;;;;;;;6.72;2.42;;;;;;;;;;5042392;28;20060;-88
2022/08/10 10:49:20;;;;;;;4.20;2.47;;;;;;;;;;5040902;28;20037;-89
2022/08/10 10:51:54;;;;;;;4.25;2.30;;;;;;;;;;5057785;28;20025;-88
2022/08/10 10:54:28;;;;;;;4.38;2.30;;;;;;;;;;5038820;28;20060;-86
2022/08/10 10:57:05;;;;;;;4.20;2.25;;;;;;;;;;5032361;28;20025;-87
2022/08/10 10:59:43;;;;;;;5.43;2.72;;;;;;;;;;5043128;28;20398;-88
2022/08/10 11:02:12;;;;;;;4.15;2.30;;;;;;;;;;5061399;28;20044;-86
2022/08/10 11:04:44;;;;;;;4.82;2.47;;;;;;;;;;5061800;28;20025;-88
2022/08/10 11:07:13;;;;;;;5.68;2.55;;;;;;;;;;5062631;28;20029;-86
2022/08/10 11:10:09;;;;;;;4.22;2.40;;;;;;;;;;5055666;28;20089;-86
2022/08/10 11:12:41;;;;;;;4.38;2.05;;;;;;;;;;5027269;28;20037;-87
2022/08/10 11:15:28;;;;;;;4.90;2.58;;;;;;;;;;5020995;28;20026;-88
2022/08/10 11:17:57;;;;;;;3.83;1.90;;;;;;;;;;5040033;28;20018;-86
2022/08/10 11:20:35;;;;;;;5.18;2.60;;;;;;;;;;5029399;28;20025;-86
2022/08/10 11:23:24;;;;;;;5.18;2.10;;;;;;;;;;5043014;28;20498;-87
2022/08/10 11:26:11;;;;;;;4.65;2.00;;;;;;;;;;5038563;28;20034;-87
2022/08/10 11:28:40;;;;;;;4.47;2.15;;;;;;;;;;5021102;28;20503;-88
2022/08/10 11:31:15;;;;;;;4.57;2.08;;;;;;;;;;5051384;28;20035;-86
2022/08/10 11:33:51;;;;;;;4.45;2.30;;;;;;;;;;5043149;28;20025;-86
2022/08/10 11:36:32;;;;;;;5.47;2.58;;;;;;;;;;5046200;28;20075;-86
2022/08/10 11:39:15;;;;;;;5.97;3.53;;;;;;;;;;5035522;28;20116;-86
2022/08/10 11:41:44;;;;;;;5.35;2.33;;;;;;;;;;5040804;28;20026;-87
2022/08/10 11:44:16;;;;;;;5.63;2.30;;;;;;;;;;5038903;28;20030;-87
2022/08/10 11:46:48;;;;;;;4.43;2.28;;;;;;;;;;5059078;28;20028;-87
2022/08/10 11:49:26;;;;;;;4.10;2.20;;;;;;;;;;5038589;28;20132;-88
2022/08/10 11:51:54;;;;;;;4.40;2.47;;;;;;;;;;5041557;28;20033;-87
2022/08/10 11:54:29;;;;;;;4.72;2.40;;;;;;;;;;5046808;28;20029;-86
2022/08/10 11:56:57;;;;;;;5.35;2.30;;;;;;;;;;5042900;28;20029;-87
2022/08/10 12:02:10;;;;;;;5.93;2.17;;;;;;;;;;5062434;28;20036;-86
2022/08/10 12:04:38;;;;;;;5.05;2.00;;;;;;;;;;5061336;28;20374;-87
2022/08/10 12:07:07;;;;;;;4.63;1.83;;;;;;;;;;5037811;28;20088;-86
2022/08/10 12:09:34;;;;;;;4.88;2.05;;;;;;;;;;5041747;28;20391;-87
2022/08/10 12:12:00;;;;;;;4.55;2.38;;;;;;;;;;5037373;28;20036;-86
2022/08/10 12:14:45;;;;;;;4.35;2.13;;;;;;;;;;5037802;28;20026;-86
2022/08/10 12:17:20;;;;;;;5.65;2.58;;;;;;;;;;5035638;28;20033;-89
2022/08/10 12:19:54;;;;;;;4.95;2.53;;;;;;;;;;5035474;28;20027;-89
2022/08/10 12:22:22;;;;;;;4.70;1.95;;;;;;;;;;5039567;28;20073;-88
2022/08/10 12:24:51;;;;;;;3.90;1.83;;;;;;;;;;5038244;28;20040;-88
2022/08/10 12:27:23;;;;;;;4.57;2.30;;;;;;;;;;5037437;28;20029;-88
2022/08/10 12:30:02;;;;;;;4.35;2.30;;;;;;;;;;5036061;28;20029;-86
2022/08/10 12:32:35;;;;;;;4.05;2.28;;;;;;;;;;5038053;28;20047;-89
2022/08/10 12:35:06;;;;;;;4.70;2.10;;;;;;;;;;5037670;28;20352;-88
2022/08/10 12:37:44;;;;;;;4.75;2.38;;;;;;;;;;5057222;28;20382;-87
2022/08/10 12:40:25;;;;;;;4.75;2.30;;;;;;;;;;5038199;28;20525;-86
2022/08/10 12:43:04;;;;;;;4.97;2.28;;;;;;;;;;5038817;28;20029;-87
2022/08/10 12:45:48;;;;;;;5.78;2.33;;;;;;;;;;5040024;28;20029;-88
2022/08/10 12:48:37;;;;;;;4.07;2.30;;;;;;;;;;5069304;28;20044;-86
2022/08/10 12:51:12;;;;;;;5.28;2.17;;;;;;;;;;5061301;28;20036;-88
2022/08/10 12:53:43;;;;;;;4.97;2.20;;;;;;;;;;5041352;28;20033;-88
2022/08/10 12:56:09;;;;;;;4.63;2.13;;;;;;;;;;5038970;28;20406;-85
2022/08/10 12:58:39;;;;;;;5.75;2.13;;;;;;;;;;5041177;28;20056;-89
2022/08/10 13:01:06;;;;;;;4.38;2.30;;;;;;;;;;5041684;28;20017;-86
2022/08/10 13:03:33;;;;;;;4.80;2.50;;;;;;;;;;5038890;28;20048;-87
2022/08/10 13:06:02;;;;;;;5.20;2.45;;;;;;;;;;5043520;28;20017;-85
2022/08/10 13:11:17;;;;;;;4.80;2.20;;;;;;;;;;5058261;28;20051;-86
2022/08/10 13:13:44;;;;;;;5.00;2.53;;;;;;;;;;5038375;28;20060;-87
2022/08/10 13:16:11;;;;;;;8.90;2.45;;;;;;;;;;5055406;28;20021;-86
2022/08/10 13:18:41;;;;;;;5.35;2.35;;;;;;;;;;5038682;28;20029;-87
2022/08/10 13:21:11;;;;;;;5.03;2.13;;;;;;;;;;5041637;28;20025;-87
2022/08/10 13:23:42;;;;;;;3.63;2.08;;;;;;;;;;5039899;28;20029;-87
2022/08/10 13:26:11;;;;;;;4.10;2.50;;;;;;;;;;5041182;28;20051;-86
2022/08/10 13:28:43;;;;;;;5.22;2.30;;;;;;;;;;5040081;28;20074;-85
2022/08/10 13:31:11;;;;;;;5.53;2.40;;;;;;;;;;5054821;28;20571;-87
2022/08/10 13:33:39;;;;;;;4.25;2.35;;;;;;;;;;5054989;28;20021;-88
2022/08/10 13:36:06;;;;;;;5.05;2.72;;;;;;;;;;5041409;28;20563;-85
2022/08/10 13:38:33;;;;;;;4.65;2.35;;;;;;;;;;5059355;28;20433;-89
2022/08/10 13:41:00;;;;;;;4.88;2.63;;;;;;;;;;5038953;28;20396;-86
2022/08/10 13:43:27;;;;;;;7.22;2.72;;;;;;;;;;5039387;28;20032;-87
2022/08/10 13:45:54;;;;;;;4.72;2.30;;;;;;;;;;5039512;28;20501;-87
2022/08/10 13:48:21;;;;;;;5.13;2.72;;;;;;;;;;5038616;28;20036;-87
2022/08/10 13:50:49;;;;;;;4.55;2.10;;;;;;;;;;5037868;28;20049;-87
2022/08/10 13:53:16;;;;;;;5.80;2.60;;;;;;;;;;5056771;28;20032;-88
2022/08/10 13:55:43;;;;;;;4.78;2.30;;;;;;;;;;5036800;28;20475;-87
2022/08/10 13:58:09;;;;;;;5.10;2.60;;;;;;;;;;5039356;28;20094;-87
2022/08/10 14:00:37;;;;;;;4.32;2.55;;;;;;;;;;5040861;28;20067;-86
2022/08/10 14:03:14;;;;;;;4.65;2.63;;;;;;;;;;5039492;28;20033;-86
2022/08/10 14:05:42;;;;;;;5.13;2.60;;;;;;;;;;5044357;28;20048;-86
2022/08/10 14:08:15;;;;;;;4.47;2.35;;;;;;;;;;5072400;28;20079;-87
2022/08/10 14:10:42;;;;;;;4.40;2.08;;;;;;;;;;5056352;28;20029;-88
2022/08/10 14:13:09;;;;;;;4.75;2.55;;;;;;;;;;5041271;28;20025;-87
2022/08/10 14:15:37;;;;;;;5.55;2.33;;;;;;;;;;5040243;28;20025;-87
2022/08/10 14:18:04;;;;;;;5.07;2.30;;;;;;;;;;5039969;28;20025;-87
2022/08/10 14:20:32;;;;;;;4.45;2.33;;;;;;;;;;5039525;28;20045;-87
2022/08/10 14:23:01;;;;;;;4.28;2.17;;;;;;;;;;5040196;28;20072;-87
2022/08/10 14:25:27;;;;;;;5.20;2.42;;;;;;;;;;5039959;28;20029;-87
2022/08/10 14:27:55;;;;;;;7.70;2.67;;;;;;;;;;5040909;28;20072;-87
2022/08/10 14:30:22;;;;;;;3.90;2.05;;;;;;;;;;5041032;28;20017;-87
2022/08/10 14:32:51;;;;;;;4.10;2.03;;;;;;;;;;5038166;28;20029;-87
2022/08/10 14:35:17;;;;;;;4.15;2.30;;;;;;;;;;5036165;28;20051;-89
2022/08/10 14:37:49;;;;;;;4.10;2.10;;;;;;;;;;5035636;28;20021;-87
2022/08/10 14:40:19;;;;;;;4.85;2.20;;;;;;;;;;5035732;28;20088;-87
2022/08/10 14:43:05;;;;;;;4.78;2.40;;;;;;;;;;5036003;28;20044;-88
2022/08/10 14:45:33;;;;;;;4.70;2.08;;;;;;;;;;5036573;28;20021;-89
2022/08/10 14:48:05;;;;;;;5.10;2.35;;;;;;;;;;5039908;28;20036;-87
2022/08/10 14:50:32;;;;;;;5.13;2.25;;;;;;;;;;5058677;28;20024;-88
2022/08/10 14:52:59;;;;;;;4.65;2.08;;;;;;;;;;5058862;28;20021;-89
2022/08/10 14:55:26;;;;;;;5.05;2.30;;;;;;;;;;5037257;28;20056;-88
2022/08/10 14:57:52;;;;;;;6.25;2.40;;;;;;;;;;5020420;28;20018;-87
2022/08/10 15:00:18;;;;;;;4.80;2.20;;;;;;;;;;5037669;28;20083;-89
2022/08/10 15:02:48;;;;;;;5.07;2.40;;;;;;;;;;5039118;28;20089;-89
2022/08/10 15:05:16;;;;;;;4.40;2.50;;;;;;;;;;5039207;28;20620;-88
2022/08/10 15:07:45;;;;;;;5.43;2.88;;;;;;;;;;5023036;28;20033;-88
2022/08/10 15:10:16;;;;;;;4.80;2.33;;;;;;;;;;5036542;28;20128;-88
2022/08/10 15:12:42;;;;;;;4.93;2.50;;;;;;;;;;5035549;28;20033;-89